Time;durP1;ratioP1;P1;durP2;ratioP2;P2;SDS_P1;SDS_P2;PMS_P1;PMS_P2;Temp;Humidity;BMP_temperature;BMP_pressure;BME280_temperature;BME280_humidity;BME280_pressure;Samples;Min_cycle;Max_cycle;Signal;HPM_P1;HPM_P2
2022/12/22 03:26:49;;;;;;;1.40;1.00;;;;;;;9.31;100.00;97462.66;5073089;28;20305;-79
2022/12/22 03:29:16;;;;;;;1.00;1.00;;;;;;;9.25;100.00;97449.94;5072759;28;20210;-79
2022/12/22 03:31:43;;;;;;;1.17;1.07;;;;;;;9.24;100.00;97449.09;5073157;28;20210;-78
2022/12/22 03:34:11;;;;;;;1.93;1.10;;;;;;;9.28;100.00;97441.78;5072968;28;20268;-79
2022/12/22 03:36:37;;;;;;;1.53;0.90;;;;;;;9.16;100.00;97433.00;5072703;28;20227;-79
2022/12/22 03:39:04;;;;;;;1.33;1.10;;;;;;;9.03;100.00;97431.38;5072757;28;20210;-79
2022/12/22 03:46:58;;;;;;;1.17;1.00;;;;;;;9.07;100.00;97420.50;5072903;28;20708;-78
2022/12/22 03:49:26;;;;;;;2.30;1.20;;;;;;;9.22;100.00;97426.44;5072993;28;20213;-78
2022/12/22 03:51:53;;;;;;;1.67;1.00;;;;;;;9.20;100.00;97423.06;5072990;28;20555;-78
2022/12/22 03:54:21;;;;;;;1.13;0.93;;;;;;;9.30;100.00;97427.53;5072598;28;20231;-78
2022/12/22 03:56:50;;;;;;;2.40;1.10;;;;;;;9.29;100.00;97425.88;5071962;28;20240;-78
2022/12/22 03:59:16;;;;;;;1.10;1.00;;;;;;;9.35;100.00;97429.81;5072428;28;20246;-78
2022/12/22 04:01:45;;;;;;;1.20;0.90;;;;;;;9.34;100.00;97417.59;5072430;28;20208;-77
2022/12/22 04:04:13;;;;;;;1.20;1.10;;;;;;;9.39;100.00;97426.88;5072631;28;20210;-78
2022/12/22 04:06:41;;;;;;;2.43;0.90;;;;;;;9.43;100.00;97417.75;5072463;28;20232;-78
2022/12/22 04:09:08;;;;;;;1.20;1.00;;;;;;;9.45;100.00;97413.22;5072254;28;20209;-79
2022/12/22 04:14:19;;;;;;;1.27;0.83;;;;;;;9.48;100.00;97414.78;5072390;28;20232;-78
2022/12/22 04:16:45;;;;;;;1.20;0.67;;;;;;;9.48;100.00;97406.88;5072365;28;20228;-79
2022/12/22 04:19:12;;;;;;;1.57;0.87;;;;;;;9.55;100.00;97400.16;5072034;28;20208;-80
2022/12/22 04:21:38;;;;;;;1.27;0.80;;;;;;;9.59;100.00;97414.78;5072295;28;20212;-78
2022/12/22 04:24:07;;;;;;;0.93;0.90;;;;;;;9.62;100.00;97409.28;5072080;28;20208;-80
2022/12/22 04:26:34;;;;;;;0.87;0.70;;;;;;;9.62;100.00;97407.47;5071829;28;20599;-80
2022/12/22 04:29:01;;;;;;;1.37;0.80;;;;;;;9.65;100.00;97395.84;5071843;28;20241;-80
2022/12/22 04:31:27;;;;;;;0.90;0.80;;;;;;;9.61;100.00;97389.13;5072770;28;20213;-80
2022/12/22 04:33:54;;;;;;;2.33;1.00;;;;;;;9.60;100.00;97382.19;5073072;28;20261;-78
2022/12/22 04:36:20;;;;;;;1.30;0.90;;;;;;;9.53;100.00;97387.09;5072410;28;20240;-78
2022/12/22 04:38:47;;;;;;;0.73;0.70;;;;;;;9.50;100.00;97381.19;5072224;28;20216;-80
2022/12/22 04:41:14;;;;;;;1.93;0.87;;;;;;;9.52;100.00;97385.41;5071592;28;20219;-79
2022/12/22 04:43:41;;;;;;;1.43;0.80;;;;;;;9.47;100.00;97377.00;5071578;28;20220;-79
2022/12/22 04:46:08;;;;;;;0.80;0.73;;;;;;;9.47;100.00;97381.44;5071839;28;20234;-78
2022/12/22 04:48:34;;;;;;;2.33;0.90;;;;;;;9.42;100.00;97386.22;5071799;28;20220;-79
2022/12/22 04:51:02;;;;;;;1.10;0.80;;;;;;;9.44;100.00;97392.22;5071337;28;20216;-79
2022/12/22 04:53:30;;;;;;;1.80;0.80;;;;;;;9.44;100.00;97392.22;5071420;28;20243;-80
2022/12/22 04:55:59;;;;;;;0.67;0.60;;;;;;;9.39;100.00;97384.66;5071334;28;20228;-80
2022/12/22 04:58:27;;;;;;;0.90;0.80;;;;;;;9.38;100.00;97387.41;5071611;28;20237;-79
2022/12/22 05:00:54;;;;;;;2.10;0.80;;;;;;;9.38;100.00;97382.13;5071303;28;20566;-80
2022/12/22 05:03:21;;;;;;;1.30;0.70;;;;;;;9.39;100.00;97395.22;5072121;28;20215;-80
2022/12/22 05:05:48;;;;;;;0.70;0.70;;;;;;;9.38;100.00;97382.13;5071677;28;20235;-79
2022/12/22 05:08:14;;;;;;;2.03;0.87;;;;;;;9.37;100.00;97385.75;5070419;28;20204;-79
2022/12/22 05:10:41;;;;;;;2.80;0.90;;;;;;;9.38;100.00;97382.13;5070939;28;20309;-77
2022/12/22 05:13:07;;;;;;;1.00;0.80;;;;;;;9.47;100.00;97381.44;5071428;28;20263;-79
2022/12/22 05:15:36;;;;;;;1.17;0.80;;;;;;;9.41;100.00;97376.63;5071175;28;20231;-80
2022/12/22 05:18:03;;;;;;;0.90;0.73;;;;;;;9.43;100.00;97372.91;5071627;28;20266;-80
2022/12/22 05:20:29;;;;;;;2.10;0.83;;;;;;;9.47;100.00;97376.16;5071108;28;20212;-78
2022/12/22 05:22:56;;;;;;;4.63;1.10;;;;;;;9.47;100.00;97370.88;5071270;28;20297;-80
2022/12/22 05:25:22;;;;;;;1.83;0.90;;;;;;;9.49;100.00;97364.53;5084711;22;21222;-84
2022/12/22 05:27:50;;;;;;;3.33;0.90;;;;;;;9.47;100.00;97368.22;5050852;28;20686;-84
2022/12/22 05:30:18;;;;;;;1.80;0.70;;;;;;;9.47;100.00;97365.59;5050168;28;20211;-84
2022/12/22 05:32:46;;;;;;;2.00;0.87;;;;;;;9.54;100.00;97357.09;5050694;28;20658;-84
2022/12/22 05:35:12;;;;;;;2.93;1.30;;;;;;;9.61;100.00;97357.47;5050771;28;20221;-84
2022/12/22 05:37:39;;;;;;;1.53;0.97;;;;;;;9.65;100.00;97361.53;5050679;28;20216;-84
2022/12/22 05:40:07;;;;;;;2.37;1.00;;;;;;;9.69;100.00;97353.28;5050399;28;20223;-84
2022/12/22 05:42:36;;;;;;;3.90;1.13;;;;;;;9.80;100.00;97358.56;5050630;28;20233;-84
2022/12/22 05:45:11;;;;;;;2.27;0.80;;;;;;;9.87;100.00;97353.66;5050771;28;20227;-84
2022/12/22 05:47:38;;;;;;;1.40;0.73;;;;;;;9.84;100.00;97353.91;5050637;28;20217;-84
2022/12/22 05:50:07;;;;;;;2.10;1.03;;;;;;;9.89;100.00;97341.16;5050231;28;20228;-84
2022/12/22 05:52:34;;;;;;;3.53;1.07;;;;;;;9.88;100.00;97350.03;5050807;28;20215;-84
2022/12/22 05:55:01;;;;;;;2.53;0.90;;;;;;;9.88;100.00;97356.16;5050636;28;20224;-84
2022/12/22 05:57:27;;;;;;;2.47;1.03;;;;;;;9.86;100.00;97351.97;5050492;28;20209;-84
2022/12/22 05:59:54;;;;;;;2.57;1.03;;;;;;;9.72;100.00;97344.31;5050131;28;20204;-84
2022/12/22 06:02:20;;;;;;;2.27;1.00;;;;;;;9.55;100.00;97348.22;5050666;28;20209;-84
2022/12/22 06:04:47;;;;;;;1.77;0.90;;;;;;;9.45;100.00;97342.00;5050351;28;20213;-84
2022/12/22 06:07:15;;;;;;;2.23;0.80;;;;;;;9.30;100.00;97339.72;5050363;28;20734;-84
2022/12/22 06:09:41;;;;;;;1.60;0.80;;;;;;;9.18;100.00;97353.81;5050331;28;20222;-84
2022/12/22 06:12:08;;;;;;;3.33;0.90;;;;;;;9.13;100.00;97361.22;5050496;28;20208;-84
2022/12/22 06:14:35;;;;;;;3.00;1.23;;;;;;;9.12;100.00;97359.56;5050417;28;20234;-84
2022/12/22 06:17:01;;;;;;;3.27;1.10;;;;;;;9.05;100.00;97355.72;5050308;28;20228;-84
2022/12/22 06:19:28;;;;;;;2.87;1.10;;;;;;;9.01;100.00;97352.44;5052639;28;20209;-85
2022/12/22 06:21:54;;;;;;;3.90;1.60;;;;;;;8.99;100.00;97358.81;5054555;28;20608;-84
2022/12/22 06:24:22;;;;;;;1.53;0.80;;;;;;;8.97;100.00;97350.16;5054323;28;20217;-84
2022/12/22 06:26:48;;;;;;;2.77;1.10;;;;;;;8.84;100.00;97350.25;5053982;28;20242;-84
2022/12/22 06:29:15;;;;;;;2.53;1.00;;;;;;;8.79;100.00;97362.91;5053741;28;20221;-84
2022/12/22 06:31:42;;;;;;;2.10;1.00;;;;;;;8.79;100.00;97356.78;5053948;28;20207;-84
2022/12/22 06:34:08;;;;;;;3.00;1.13;;;;;;;8.90;100.00;97354.19;5053859;28;20232;-84
2022/12/22 06:36:35;;;;;;;1.80;1.00;;;;;;;9.10;100.00;97353.53;5053815;28;20240;-84
2022/12/22 06:39:01;;;;;;;7.30;1.50;;;;;;;9.22;100.00;97349.97;5053599;28;20214;-84
2022/12/22 06:44:13;;;;;;;10.03;1.33;;;;;;;9.46;100.00;97342.81;5053701;28;20199;-84
2022/12/22 06:46:40;;;;;;;4.20;1.50;;;;;;;9.50;100.00;97345.13;5053505;28;20236;-85
2022/12/22 06:49:06;;;;;;;4.73;1.57;;;;;;;9.51;100.00;97345.94;5053613;28;20209;-84
2022/12/22 06:51:33;;;;;;;2.13;1.10;;;;;;;9.55;100.00;97331.56;5053719;28;20214;-84
2022/12/22 06:53:59;;;;;;;5.07;1.30;;;;;;;9.67;100.00;97341.19;5053459;28;20226;-84
2022/12/22 06:56:26;;;;;;;2.30;1.13;;;;;;;9.68;100.00;97337.56;5053301;28;20232;-84
2022/12/22 06:58:54;;;;;;;5.10;1.30;;;;;;;9.65;100.00;97337.81;5061527;28;20218;-83
2022/12/22 07:01:20;;;;;;;5.67;1.53;;;;;;;9.76;100.00;97335.16;5072396;28;20237;-84
2022/12/22 07:03:47;;;;;;;6.00;1.60;;;;;;;9.81;100.00;97333.00;5071302;28;20212;-84
2022/12/22 07:06:13;;;;;;;5.30;1.67;;;;;;;9.84;100.00;97332.78;5072184;28;20231;-83
2022/12/22 07:08:39;;;;;;;6.17;1.90;;;;;;;9.89;100.00;97335.88;5069212;28;20211;-84
2022/12/22 07:11:06;;;;;;;4.23;1.30;;;;;;;10.00;100.00;97334.09;5068744;28;20214;-83
2022/12/22 07:13:34;;;;;;;4.23;1.50;;;;;;;10.04;100.00;97340.81;5070090;28;20246;-84
2022/12/22 07:16:04;;;;;;;3.57;1.50;;;;;;;10.04;100.00;97347.91;5054292;28;20251;-84
2022/12/22 07:18:32;;;;;;;5.47;1.60;;;;;;;10.08;100.00;97352.81;5053983;28;20212;-84
2022/12/22 07:20:59;;;;;;;6.43;2.30;;;;;;;10.10;100.00;97350.06;5053181;28;20216;-84
2022/12/22 07:23:26;;;;;;;6.33;1.87;;;;;;;10.09;100.00;97338.66;5053377;28;20216;-84
2022/12/22 07:25:52;;;;;;;5.40;1.60;;;;;;;10.02;100.00;97342.72;5052743;28;20239;-84
2022/12/22 07:28:19;;;;;;;5.07;1.20;;;;;;;9.90;100.00;97354.25;5053173;28;20205;-84
2022/12/22 07:30:46;;;;;;;4.60;1.63;;;;;;;9.76;100.00;97361.56;5051836;28;20228;-84
2022/12/22 07:33:13;;;;;;;7.37;1.67;;;;;;;9.70;100.00;97368.16;5053123;28;20208;-84
2022/12/22 07:35:40;;;;;;;4.40;1.33;;;;;;;9.74;100.00;97363.47;5052784;28;20236;-83
2022/12/22 07:38:06;;;;;;;4.37;1.30;;;;;;;9.74;100.00;97374.03;5052696;28;20284;-84
2022/12/22 07:40:33;;;;;;;4.97;1.63;;;;;;;9.79;100.00;97362.16;5052329;28;20210;-83
2022/12/22 07:42:59;;;;;;;4.00;1.40;;;;;;;9.75;100.00;97366.00;5052581;28;20690;-82
2022/12/22 07:45:26;;;;;;;5.63;2.07;;;;;;;9.77;100.00;97373.78;5052800;28;20232;-82
2022/12/22 07:47:59;;;;;;;4.10;1.70;;;;;;;9.79;100.00;97371.88;5052737;28;20205;-85
2022/12/22 07:50:31;;;;;;;4.20;1.30;;;;;;;9.75;100.00;97370.44;5052289;28;20210;-87
2022/12/22 07:53:00;;;;;;;5.53;1.60;;;;;;;9.74;100.00;97380.13;5052353;28;20712;-85
2022/12/22 07:55:28;;;;;;;5.00;1.60;;;;;;;9.87;100.00;97369.47;5052499;28;20235;-84
2022/12/22 07:57:55;;;;;;;3.97;1.53;;;;;;;9.92;100.00;97357.59;5052373;28;20217;-82
2022/12/22 08:00:23;;;;;;;5.27;1.37;;;;;;;9.94;100.00;97341.63;5052174;28;20269;-80
2022/12/22 08:02:50;;;;;;;3.50;1.40;;;;;;;9.90;100.00;97358.69;5052635;28;20208;-82
2022/12/22 08:05:18;;;;;;;3.13;1.30;;;;;;;9.87;100.00;97358.91;5052060;28;20224;-81
2022/12/22 08:07:47;;;;;;;4.87;1.80;;;;;;;9.79;100.00;97361.34;5051545;28;20210;-85
2022/12/22 08:10:14;;;;;;;4.73;1.60;;;;;;;9.64;100.00;97383.59;5051719;28;20222;-82
2022/12/22 08:12:40;;;;;;;4.37;1.63;;;;;;;9.61;100.00;97378.59;5051959;28;20680;-83
2022/12/22 08:15:09;;;;;;;2.57;1.20;;;;;;;9.58;100.00;97381.44;5051844;28;20239;-83
2022/12/22 08:17:36;;;;;;;4.43;1.27;;;;;;;9.56;100.00;97383.38;5051800;28;20220;-83
2022/12/22 08:20:03;;;;;;;5.53;1.47;;;;;;;9.56;100.00;97386.88;5051491;28;20214;-83
2022/12/22 08:22:30;;;;;;;7.50;1.20;;;;;;;9.57;100.00;97404.38;5051860;28;20208;-83
2022/12/22 08:24:58;;;;;;;4.23;1.23;;;;;;;9.61;100.00;97411.06;5051559;28;20229;-83
2022/12/22 08:27:29;;;;;;;3.07;1.00;;;;;;;9.69;100.00;97405.22;5051574;28;20216;-85
2022/12/22 08:29:58;;;;;;;2.73;0.90;;;;;;;9.77;100.00;97397.53;5051444;28;20242;-85
2022/12/22 08:32:25;;;;;;;2.70;1.00;;;;;;;9.79;100.00;97393.00;5051594;28;20204;-86
2022/12/22 08:34:53;;;;;;;3.53;1.40;;;;;;;9.80;100.00;97384.94;5051315;28;20236;-84
2022/12/22 08:37:23;;;;;;;5.80;1.10;;;;;;;9.87;100.00;97382.69;5051733;28;20218;-83
2022/12/22 08:39:54;;;;;;;4.30;1.20;;;;;;;9.93;100.00;97390.13;5051082;28;20213;-85
2022/12/22 08:42:24;;;;;;;5.57;1.30;;;;;;;9.91;100.00;97387.59;5051335;28;20829;-85
2022/12/22 08:44:52;;;;;;;6.77;1.50;;;;;;;9.95;100.00;97396.94;5051248;28;20578;-85
2022/12/22 08:47:19;;;;;;;2.70;1.13;;;;;;;9.97;100.00;97386.28;5051249;28;20326;-85
2022/12/22 08:49:46;;;;;;;3.30;1.30;;;;;;;10.03;100.00;97385.81;5051063;28;20355;-84
2022/12/22 08:52:12;;;;;;;6.20;1.50;;;;;;;9.97;100.00;97381.00;5051477;28;20295;-84
2022/12/22 08:54:39;;;;;;;5.93;1.53;;;;;;;9.95;100.00;97386.41;5051306;28;20593;-84
2022/12/22 08:57:05;;;;;;;6.23;1.70;;;;;;;10.08;100.00;97373.09;5051314;28;20228;-84
2022/12/22 08:59:33;;;;;;;3.17;1.50;;;;;;;10.08;100.00;97365.16;5050967;28;20215;-84
2022/12/22 09:02:03;;;;;;;6.80;1.77;;;;;;;10.02;100.00;97355.91;5051441;28;20230;-84
2022/12/22 09:04:31;;;;;;;5.33;1.40;;;;;;;9.93;100.00;97369.00;5051012;28;20211;-84
2022/12/22 09:06:57;;;;;;;6.47;1.87;;;;;;;9.88;100.00;97381.72;5050365;28;20243;-84
2022/12/22 09:09:24;;;;;;;6.07;1.43;;;;;;;9.85;100.00;97376.69;5050898;28;20208;-84
2022/12/22 09:11:51;;;;;;;5.13;1.50;;;;;;;9.84;100.00;97380.28;5051006;28;20676;-85
2022/12/22 09:14:17;;;;;;;4.70;1.70;;;;;;;9.98;100.00;97385.31;5048360;28;20455;-83
2022/12/22 09:16:45;;;;;;;5.70;1.80;;;;;;;10.10;100.00;97393.13;5049349;28;20230;-84
2022/12/22 09:19:12;;;;;;;6.90;1.60;;;;;;;10.26;100.00;97388.31;5050145;28;20204;-84
2022/12/22 09:21:38;;;;;;;5.33;1.40;;;;;;;10.36;100.00;97384.00;5050180;28;20208;-84
2022/12/22 09:24:06;;;;;;;4.60;1.20;;;;;;;10.47;100.00;97372.56;5049121;28;20561;-84
2022/12/22 09:26:33;;;;;;;5.93;1.60;;;;;;;10.40;100.00;97389.88;5047384;28;20231;-84
2022/12/22 09:29:00;;;;;;;5.30;1.47;;;;;;;10.33;100.00;97396.63;5049957;28;20208;-83
2022/12/22 09:31:27;;;;;;;4.77;1.23;;;;;;;10.27;100.00;97402.38;5045597;28;20583;-84
2022/12/22 09:33:56;;;;;;;3.27;1.30;;;;;;;10.22;100.00;97423.03;5030489;28;20215;-84
2022/12/22 09:36:24;;;;;;;4.47;1.00;;;;;;;10.16;100.00;97410.31;5030438;28;20232;-84
2022/12/22 09:38:51;;;;;;;5.27;1.50;;;;;;;10.22;100.00;97412.47;5030196;28;20204;-80
2022/12/22 09:41:20;;;;;;;4.97;1.17;;;;;;;10.22;100.00;97428.31;5031039;28;20222;-85
2022/12/22 09:43:47;;;;;;;6.47;1.67;;;;;;;10.22;100.00;97420.38;5031314;28;20232;-86
2022/12/22 09:46:20;;;;;;;5.57;1.53;;;;;;;10.25;100.00;97422.78;5031048;28;20321;-86
2022/12/22 09:48:46;;;;;;;4.20;1.40;;;;;;;10.18;100.00;97434.78;5030865;28;20236;-85
2022/12/22 09:51:16;;;;;;;3.10;1.23;;;;;;;10.17;100.00;97425.19;5030949;28;20236;-81
2022/12/22 09:53:44;;;;;;;3.33;1.20;;;;;;;10.12;100.00;97427.34;5032054;28;20209;-86
2022/12/22 09:56:13;;;;;;;4.43;1.40;;;;;;;10.15;100.00;97421.84;5034828;28;20238;-82
2022/12/22 09:58:41;;;;;;;5.27;1.40;;;;;;;10.13;100.00;97424.59;5034714;28;20213;-85
2022/12/22 10:01:21;;;;;;;3.67;1.13;;;;;;;10.15;100.00;97430.56;5034701;28;20210;-85
2022/12/22 10:03:53;;;;;;;5.53;1.27;;;;;;;10.08;100.00;97429.38;5034259;28;20227;-85
2022/12/22 10:06:29;;;;;;;2.60;1.07;;;;;;;10.17;100.00;97433.97;5054117;28;20231;-85
2022/12/22 10:08:56;;;;;;;5.80;1.20;;;;;;;10.10;100.00;97440.66;5054150;28;20207;-88
2022/12/22 10:11:22;;;;;;;5.50;1.60;;;;;;;10.08;100.00;97432.03;5053493;28;20458;-82
2022/12/22 10:13:49;;;;;;;5.27;1.40;;;;;;;10.11;100.00;97441.50;5054330;28;20215;-85
2022/12/22 10:16:17;;;;;;;3.40;1.33;;;;;;;10.18;100.00;97442.69;5054399;28;20615;-86
2022/12/22 10:18:55;;;;;;;4.37;1.33;;;;;;;10.22;100.00;97454.72;5054047;28;20212;-88
2022/12/22 10:21:25;;;;;;;3.73;1.03;;;;;;;10.26;100.00;97451.72;5054428;28;20211;-88
2022/12/22 10:23:52;;;;;;;3.87;1.10;;;;;;;10.22;100.00;97449.44;5054015;28;20213;-88
2022/12/22 10:26:22;;;;;;;2.03;0.93;;;;;;;10.18;100.00;97455.91;5054002;28;20316;-88
2022/12/22 10:28:53;;;;;;;3.30;1.10;;;;;;;10.14;100.00;97459.72;5054138;28;20562;-88
2022/12/22 10:31:22;;;;;;;3.03;0.93;;;;;;;10.15;100.00;97466.72;5054000;28;20208;-87
2022/12/22 10:33:51;;;;;;;2.83;1.10;;;;;;;10.12;100.00;97474.88;5054077;28;20211;-88
2022/12/22 10:36:22;;;;;;;2.27;1.10;;;;;;;10.07;100.00;97498.13;5053690;28;20246;-88
2022/12/22 10:39:00;;;;;;;2.43;1.20;;;;;;;10.07;100.00;97488.44;5053556;28;20597;-88
2022/12/22 10:41:30;;;;;;;3.53;1.00;;;;;;;10.11;100.00;97478.47;5054134;28;20210;-88
2022/12/22 10:44:00;;;;;;;1.83;0.80;;;;;;;10.14;100.00;97484.34;5054050;28;20209;-88
2022/12/22 10:46:33;;;;;;;2.50;1.30;;;;;;;10.17;100.00;97472.72;5054126;28;20228;-88
2022/12/22 10:49:10;;;;;;;3.77;1.17;;;;;;;10.08;100.00;97468.13;5053516;28;20209;-88
2022/12/22 10:51:38;;;;;;;4.03;1.10;;;;;;;10.09;100.00;97480.41;5053697;28;20212;-85
2022/12/22 10:54:06;;;;;;;3.13;0.90;;;;;;;10.10;100.00;97466.22;5053626;28;20210;-84
2022/12/22 10:56:34;;;;;;;2.67;1.10;;;;;;;10.11;100.00;97467.91;5053384;28;20238;-84
2022/12/22 10:59:15;;;;;;;2.10;0.83;;;;;;;10.17;100.00;97462.16;5053066;28;20590;-85
2022/12/22 11:01:42;;;;;;;2.80;0.80;;;;;;;10.17;100.00;97462.16;5053370;28;20347;-83
2022/12/22 11:04:17;;;;;;;3.20;0.80;;;;;;;10.29;100.00;97455.91;5053019;28;20205;-85
2022/12/22 11:06:44;;;;;;;2.03;0.90;;;;;;;10.26;100.00;97456.13;5052411;28;20227;-85
2022/12/22 11:09:12;;;;;;;2.87;1.00;;;;;;;10.33;100.00;97462.66;5053104;28;20532;-84
2022/12/22 11:11:45;;;;;;;3.17;1.33;;;;;;;10.32;100.00;97460.94;5053383;28;20212;-84
2022/12/22 11:14:20;;;;;;;4.80;1.17;;;;;;;10.36;100.00;97457.09;5053349;28;20208;-82
2022/12/22 11:16:51;;;;;;;5.30;1.30;;;;;;;10.44;100.00;97457.31;5053005;28;20239;-85
2022/12/22 11:19:43;;;;;;;3.30;1.30;;;;;;;10.49;100.00;97447.25;5052738;28;20219;-83
2022/12/22 11:22:21;;;;;;;2.20;1.27;;;;;;;10.59;100.00;97449.03;5052928;28;20204;-85
2022/12/22 11:25:01;;;;;;;3.50;0.87;;;;;;;10.67;100.00;97440.50;5053148;28;20206;-81
2022/12/22 11:27:37;;;;;;;2.80;1.00;;;;;;;10.58;100.00;97449.16;5069214;22;20238;-78
2022/12/22 11:30:10;;;;;;;2.00;0.70;;;;;;;10.65;100.00;97451.16;5052475;28;20219;-80
2022/12/22 11:33:05;;;;;;;3.13;0.87;;;;;;;10.69;100.00;97441.19;5053469;28;20274;-78
2022/12/22 11:35:43;;;;;;;3.53;0.93;;;;;;;10.74;100.00;97433.75;5052819;28;20232;-77
2022/12/22 11:38:19;;;;;;;3.27;1.07;;;;;;;10.76;100.00;97440.59;5052942;28;20219;-78
2022/12/22 11:40:53;;;;;;;1.83;0.90;;;;;;;10.78;100.00;97453.69;5052620;28;20700;-78
2022/12/22 11:43:25;;;;;;;2.60;1.00;;;;;;;10.81;100.00;97453.41;5052884;28;20212;-78
2022/12/22 11:46:11;;;;;;;1.80;0.60;;;;;;;10.87;100.00;97432.63;5052757;28;20712;-78
2022/12/22 11:49:03;;;;;;;3.53;1.00;;;;;;;10.91;100.00;97433.22;5052744;28;20220;-78
2022/12/22 11:51:56;;;;;;;2.60;0.90;;;;;;;10.97;100.00;97432.72;5052801;28;20211;-77
2022/12/22 11:54:41;;;;;;;2.37;0.97;;;;;;;11.03;100.00;97429.56;5052816;28;20232;-77
2022/12/22 11:57:22;;;;;;;0.83;0.53;;;;;;;11.08;100.00;97424.75;5052800;28;20238;-78
2022/12/22 12:00:00;;;;;;;3.37;1.00;;;;;;;11.15;100.00;97425.91;5052241;28;20215;-76
2022/12/22 12:03:02;;;;;;;2.47;1.00;;;;;;;11.17;100.00;97429.25;5052971;28;20585;-76
2022/12/22 12:05:49;;;;;;;1.37;0.70;;;;;;;11.28;100.00;97406.28;5052537;28;20603;-78
2022/12/22 12:08:28;;;;;;;2.53;1.20;;;;;;;11.34;100.00;97410.19;5052555;28;20212;-77
2022/12/22 12:11:03;;;;;;;2.57;0.93;;;;;;;11.35;100.00;97393.34;5052374;28;20581;-77
2022/12/22 12:13:39;;;;;;;4.37;0.70;;;;;;;11.37;100.00;97404.66;5052395;28;20216;-78
2022/12/22 12:16:14;;;;;;;0.93;0.57;;;;;;;11.37;100.00;97417.91;5051871;28;20237;-76
2022/12/22 12:18:59;;;;;;;1.70;0.70;;;;;;;11.38;100.00;97422.22;5052369;28;20218;-79
2022/12/22 12:21:27;;;;;;;2.93;1.23;;;;;;;11.46;100.00;97415.31;5052179;28;20216;-76
2022/12/22 12:24:24;;;;;;;2.07;1.10;;;;;;;11.50;100.00;97423.84;5051950;28;20683;-76
2022/12/22 12:27:00;;;;;;;1.57;0.70;;;;;;;11.59;100.00;97434.53;5051961;28;20236;-76
2022/12/22 12:29:34;;;;;;;1.57;0.70;;;;;;;11.75;100.00;97429.59;5051880;28;20205;-77
2022/12/22 12:32:05;;;;;;;2.97;0.93;;;;;;;11.88;100.00;97405.56;5051837;28;20664;-77
2022/12/22 12:34:37;;;;;;;2.93;0.90;;;;;;;11.97;100.00;97416.22;5051885;28;20206;-77
2022/12/22 12:37:13;;;;;;;2.37;0.77;;;;;;;12.01;99.67;97406.19;5051624;28;20712;-77
2022/12/22 12:39:50;;;;;;;2.93;1.23;;;;;;;12.00;99.12;97415.97;5051735;28;20221;-77
2022/12/22 12:42:27;;;;;;;1.83;0.80;;;;;;;11.98;99.74;97423.19;5051807;28;20214;-79
2022/12/22 12:44:55;;;;;;;2.20;0.90;;;;;;;11.88;99.77;97424.09;5051619;28;20220;-77
2022/12/22 12:47:25;;;;;;;2.33;1.00;;;;;;;11.80;100.00;97434.50;5051738;28;20287;-77
2022/12/22 12:50:05;;;;;;;2.43;1.00;;;;;;;11.79;98.21;97419.59;5051517;28;20557;-76
2022/12/22 12:53:08;;;;;;;2.20;0.77;;;;;;;11.77;98.05;97425.03;5051723;28;20211;-75
2022/12/22 12:55:55;;;;;;;2.70;0.80;;;;;;;11.91;97.76;97421.19;5051811;28;20229;-77
2022/12/22 12:59:03;;;;;;;2.47;0.70;;;;;;;11.90;95.84;97414.22;5051492;28;20212;-76
2022/12/22 13:01:55;;;;;;;1.63;0.70;;;;;;;11.89;96.64;97433.72;5051426;28;20215;-77
2022/12/22 13:05:14;;;;;;;2.00;0.87;;;;;;;11.84;97.03;97441.22;5051590;28;20214;-77
2022/12/22 13:08:17;;;;;;;2.70;1.13;;;;;;;11.73;97.69;97460.66;5051162;28;20280;-77
2022/12/22 13:11:09;;;;;;;1.53;0.60;;;;;;;11.70;97.73;97460.06;5051193;28;20208;-78
2022/12/22 13:13:50;;;;;;;1.47;0.70;;;;;;;11.73;98.52;97473.06;5051141;28;20208;-77
2022/12/22 13:16:26;;;;;;;4.00;1.00;;;;;;;11.65;100.00;97486.09;5051263;28;20602;-76
2022/12/22 13:18:57;;;;;;;1.83;0.60;;;;;;;11.61;99.67;97497.91;5050842;28;20681;-78
2022/12/22 13:21:25;;;;;;;1.43;0.70;;;;;;;11.59;99.75;97492.75;5051118;28;20204;-78
2022/12/22 13:23:59;;;;;;;3.27;0.93;;;;;;;11.56;100.00;97502.72;5051224;28;20208;-78
2022/12/22 13:26:28;;;;;;;2.03;0.60;;;;;;;11.60;98.55;97490.91;5050965;28;20233;-78
2022/12/22 13:28:57;;;;;;;0.70;0.60;;;;;;;11.54;99.27;97507.28;5049972;28;20208;-78
2022/12/22 13:31:31;;;;;;;2.70;0.80;;;;;;;11.57;99.63;97507.03;5051087;28;20671;-76
2022/12/22 13:34:06;;;;;;;1.93;0.70;;;;;;;11.51;100.00;97521.63;5051190;28;20218;-78
2022/12/22 13:36:34;;;;;;;2.47;0.97;;;;;;;11.51;100.00;97539.28;5050889;28;20239;-76
2022/12/22 13:39:02;;;;;;;3.30;0.80;;;;;;;11.48;100.00;97542.19;5050666;28;20563;-80
2022/12/22 13:41:30;;;;;;;2.00;0.63;;;;;;;11.45;100.00;97535.38;5051075;28;20219;-80
2022/12/22 13:44:03;;;;;;;2.80;0.97;;;;;;;11.44;100.00;97520.44;5051146;28;20212;-80
2022/12/22 13:46:31;;;;;;;2.33;0.80;;;;;;;11.47;100.00;97532.56;5051146;28;20231;-78
2022/12/22 13:48:59;;;;;;;1.63;0.80;;;;;;;11.44;100.00;97527.53;5050655;28;20213;-80
2022/12/22 13:51:31;;;;;;;2.03;1.07;;;;;;;11.47;100.00;97533.41;5050957;28;20210;-80
2022/12/22 13:54:01;;;;;;;2.13;0.60;;;;;;;11.46;100.00;97534.38;5050916;28;20702;-79
2022/12/22 13:56:37;;;;;;;3.13;0.93;;;;;;;11.45;100.00;97540.66;5050912;28;20236;-77
2022/12/22 13:59:05;;;;;;;2.03;0.80;;;;;;;11.44;100.00;97554.00;5050651;28;20462;-77
2022/12/22 14:01:31;;;;;;;2.87;0.93;;;;;;;11.50;100.00;97541.09;5050990;28;20679;-78
2022/12/22 14:04:01;;;;;;;3.67;1.13;;;;;;;11.50;100.00;97542.91;5050589;28;20236;-76
2022/12/22 14:06:31;;;;;;;2.63;1.07;;;;;;;11.49;100.00;97546.53;5050698;28;20241;-78
2022/12/22 14:09:12;;;;;;;5.30;1.03;;;;;;;11.46;99.71;97536.19;5050316;28;20262;-77
2022/12/22 14:11:40;;;;;;;2.20;1.00;;;;;;;11.45;100.00;97553.03;5050802;28;20220;-78
2022/12/22 14:14:08;;;;;;;2.47;0.87;;;;;;;11.44;99.06;97536.31;5050658;28;20217;-78
2022/12/22 14:16:35;;;;;;;3.23;0.80;;;;;;;11.65;97.91;97528.44;5050546;28;20232;-78
2022/12/22 14:19:01;;;;;;;3.23;1.00;;;;;;;11.58;96.93;97536.06;5050555;28;20268;-78
2022/12/22 14:21:29;;;;;;;5.03;0.90;;;;;;;11.51;97.28;97549.88;5050939;28;20215;-78
2022/12/22 14:23:56;;;;;;;3.57;0.80;;;;;;;11.47;97.20;97538.72;5050823;28;20295;-78
2022/12/22 14:26:29;;;;;;;4.47;1.10;;;;;;;11.41;97.91;97546.28;5050695;28;20263;-77
2022/12/22 14:28:57;;;;;;;5.87;1.20;;;;;;;11.39;98.56;97553.53;5050384;28;20562;-77
2022/12/22 14:31:24;;;;;;;4.65;1.30;;;;;;;11.39;97.92;97545.59;5050002;28;20447;-78
2022/12/22 14:33:53;;;;;;;3.43;1.13;;;;;;;11.38;97.79;97554.50;5050924;28;20210;-78
2022/12/22 14:36:22;;;;;;;5.37;1.67;;;;;;;11.38;97.66;97538.63;5050828;28;20238;-79
2022/12/22 14:38:51;;;;;;;3.93;1.30;;;;;;;11.38;97.70;97543.91;5051448;28;20216;-78
2022/12/22 14:44:11;;;;;;;8.90;1.57;;;;;;;11.34;97.27;97547.75;5057231;28;20286;-77
2022/12/22 14:46:37;;;;;;;4.00;1.17;;;;;;;11.30;96.61;97541.88;5054515;28;20225;-76
2022/12/22 14:49:04;;;;;;;4.10;1.30;;;;;;;11.22;97.10;97538.19;5053642;28;20213;-77
2022/12/22 14:51:31;;;;;;;5.87;1.57;;;;;;;11.19;97.72;97563.06;5053986;28;20235;-78
2022/12/22 14:54:02;;;;;;;5.00;1.20;;;;;;;11.16;98.71;97563.34;5053750;28;20212;-77
2022/12/22 14:56:28;;;;;;;3.80;1.33;;;;;;;11.12;98.60;97566.34;5053657;28;20239;-78
2022/12/22 14:59:09;;;;;;;6.17;1.83;;;;;;;11.10;99.19;97578.84;5053506;28;20218;-76
2022/12/22 15:01:35;;;;;;;3.13;1.30;;;;;;;11.10;98.62;97570.91;5053840;28;20230;-77
2022/12/22 15:04:06;;;;;;;5.53;1.47;;;;;;;11.16;98.07;97565.13;5053583;28;20207;-77
2022/12/22 15:06:38;;;;;;;5.07;1.47;;;;;;;11.17;97.65;97569.44;5053505;28;20232;-75
2022/12/22 15:09:28;;;;;;;5.90;1.47;;;;;;;11.23;95.81;97561.00;5053304;28;20205;-78
2022/12/22 15:12:02;;;;;;;6.83;1.70;;;;;;;11.26;95.56;97568.72;5053723;28;20262;-76
2022/12/22 15:14:32;;;;;;;4.33;1.33;;;;;;;11.25;96.11;97573.16;5053486;28;20802;-77
2022/12/22 15:17:01;;;;;;;8.00;2.40;;;;;;;11.22;96.00;97577.84;5053211;28;20282;-77
2022/12/22 15:19:29;;;;;;;5.85;1.63;;;;;;;11.26;97.25;97589.88;5052592;28;20436;-78
2022/12/22 15:21:56;;;;;;;6.63;1.87;;;;;;;11.16;96.84;97589.78;5053386;28;20709;-76
2022/12/22 15:24:23;;;;;;;7.87;2.07;;;;;;;11.11;97.80;97597.22;5052341;28;20424;-77